Time;durP1;ratioP1;P1;durP2;ratioP2;P2;SDS_P1;SDS_P2;PMS_P1;PMS_P2;Temp;Humidity;BMP_temperature;BMP_pressure;BME280_temperature;BME280_humidity;BME280_pressure;Samples;Min_cycle;Max_cycle;Signal;HPM_P1;HPM_P2
2023/07/30 00:00:10;;;;;;;4.70;3.10;;;;;;;15.30;100.00;100179.91;676940;29;1790;-62
2023/07/30 00:00:32;;;;;;;5.75;3.10;;;;;;;15.28;100.00;100174.66;678568;29;1379;-62
2023/07/30 00:00:52;;;;;;;5.15;2.90;;;;;;;15.27;100.00;100175.59;675119;29;4705;-61
2023/07/30 00:01:13;;;;;;;5.37;3.30;;;;;;;15.27;100.00;100180.88;678509;29;758;-61
2023/07/30 00:01:33;;;;;;;5.60;3.20;;;;;;;15.27;100.00;100172.97;679523;29;979;-61
2023/07/30 00:01:54;;;;;;;5.90;3.40;;;;;;;15.27;100.00;100167.69;678321;29;2639;-61
2023/07/30 00:02:14;;;;;;;5.50;3.07;;;;;;;15.27;100.00;100177.34;674159;29;1320;-61
2023/07/30 00:02:35;;;;;;;4.55;2.92;;;;;;;15.25;100.00;100174.75;674479;29;788;-61
2023/07/30 00:02:56;;;;;;;5.15;3.08;;;;;;;15.24;100.00;100174.81;675761;29;1901;-61
2023/07/30 00:03:17;;;;;;;7.18;3.63;;;;;;;15.26;100.00;100173.88;676779;29;961;-61
2023/07/30 00:03:37;;;;;;;5.47;3.27;;;;;;;15.28;100.00;100169.41;676038;29;4496;-61
2023/07/30 00:03:57;;;;;;;5.25;3.20;;;;;;;15.29;100.00;100172.91;676329;29;1918;-61
2023/07/30 00:04:18;;;;;;;6.20;2.93;;;;;;;15.28;100.00;100179.06;681611;29;1972;-62
2023/07/30 00:04:38;;;;;;;5.65;3.00;;;;;;;15.26;100.00;100171.22;681665;29;884;-61
2023/07/30 00:04:59;;;;;;;5.27;3.30;;;;;;;15.22;100.00;100174.88;677218;29;1864;-61
2023/07/30 00:05:19;;;;;;;5.82;3.10;;;;;;;15.21;100.00;100177.56;679089;29;1296;-60
2023/07/30 00:05:39;;;;;;;5.37;3.00;;;;;;;15.19;100.00;100177.59;678889;29;1449;-61
2023/07/30 00:06:00;;;;;;;6.20;3.37;;;;;;;15.18;100.00;100178.50;678371;29;1775;-61
2023/07/30 00:06:20;;;;;;;6.85;3.30;;;;;;;15.19;100.00;100182.00;679254;29;778;-61
2023/07/30 00:06:40;;;;;;;4.90;3.30;;;;;;;15.17;100.00;100181.19;677033;29;4611;-61
2023/07/30 00:07:01;;;;;;;5.07;3.30;;;;;;;15.16;100.00;100180.34;677809;29;2361;-61
2023/07/30 00:07:21;;;;;;;5.30;3.13;;;;;;;15.15;100.00;100170.72;679710;29;1336;-61
2023/07/30 00:07:42;;;;;;;5.13;3.30;;;;;;;15.14;100.00;100182.16;678521;29;1413;-62
2023/07/30 00:08:02;;;;;;;5.32;3.20;;;;;;;15.15;100.00;100183.88;676941;29;2418;-62
2023/07/30 00:08:23;;;;;;;6.37;3.30;;;;;;;15.15;100.00;100179.47;678382;29;890;-61
2023/07/30 00:08:44;;;;;;;5.63;3.10;;;;;;;15.13;100.00;100181.31;679196;29;1399;-62
2023/07/30 00:09:04;;;;;;;4.97;3.13;;;;;;;15.11;100.00;100182.25;677964;29;2206;-61
2023/07/30 00:09:25;;;;;;;5.78;3.17;;;;;;;15.10;100.00;100180.53;679562;28;1346;-61
2023/07/30 00:09:45;;;;;;;5.50;3.00;;;;;;;15.09;100.00;100184.94;678227;28;4767;-61
2023/07/30 00:10:06;;;;;;;5.57;3.38;;;;;;;15.09;100.00;100178.78;676524;29;1507;-61
2023/07/30 00:10:27;;;;;;;5.63;3.28;;;;;;;15.07;100.00;100183.25;677355;29;972;-61
2023/07/30 00:10:47;;;;;;;5.37;3.00;;;;;;;15.06;100.00;100186.78;677422;29;1265;-62
2023/07/30 00:11:08;;;;;;;5.40;3.08;;;;;;;15.06;100.00;100189.41;674328;29;2284;-61
2023/07/30 00:11:31;;;;;;;5.20;3.27;;;;;;;15.07;100.00;100183.25;677336;29;853;-60
2023/07/30 00:11:51;;;;;;;6.15;3.10;;;;;;;15.07;100.00;100185.88;676321;29;976;-61
2023/07/30 00:12:12;;;;;;;5.38;2.92;;;;;;;15.04;100.00;100180.72;672011;29;2374;-60
2023/07/30 00:12:32;;;;;;;5.57;3.30;;;;;;;15.05;100.00;100178.03;671307;29;1325;-62
2023/07/30 00:12:52;;;;;;;6.53;3.80;;;;;;;15.05;100.00;100185.06;661238;29;4390;-62
2023/07/30 00:13:13;;;;;;;5.73;3.03;;;;;;;15.05;100.00;100185.06;673300;29;938;-62
2023/07/30 00:13:34;;;;;;;5.50;2.80;;;;;;;15.05;100.00;100182.44;673637;29;889;-62
2023/07/30 00:13:56;;;;;;;5.37;3.00;;;;;;;15.04;100.00;100180.72;673085;29;2341;-61
2023/07/30 00:14:17;;;;;;;5.25;3.10;;;;;;;15.02;100.00;100183.38;677422;29;1288;-62
2023/07/30 00:14:37;;;;;;;5.83;3.20;;;;;;;15.00;100.00;100176.47;679424;29;1498;-61
2023/07/30 00:14:57;;;;;;;6.22;3.22;;;;;;;15.00;100.00;100185.22;677289;29;2465;-62
2023/07/30 00:15:18;;;;;;;5.10;3.03;;;;;;;15.02;100.00;100187.78;682126;29;827;-61
2023/07/30 00:15:38;;;;;;;5.45;3.20;;;;;;;14.98;100.00;100185.25;681354;28;4408;-62
2023/07/30 00:15:59;;;;;;;5.70;3.27;;;;;;;15.00;100.00;100184.38;679369;28;2006;-62
2023/07/30 00:16:22;;;;;;;6.13;3.25;;;;;;;15.00;100.00;100181.72;680347;29;5007;-61
2023/07/30 00:16:42;;;;;;;6.00;3.10;;;;;;;14.98;100.00;100181.75;682224;29;1040;-62
2023/07/30 00:17:05;;;;;;;5.13;3.27;;;;;;;14.97;100.00;100185.31;679315;28;2108;-62
2023/07/30 00:17:26;;;;;;;5.05;3.25;;;;;;;14.94;100.00;100182.78;679020;29;900;-61
2023/07/30 00:17:46;;;;;;;5.10;3.20;;;;;;;14.94;100.00;100183.63;678571;29;1571;-62
2023/07/30 00:18:07;;;;;;;5.13;2.87;;;;;;;14.95;100.00;100182.72;677669;29;2550;-62
2023/07/30 00:18:27;;;;;;;6.97;2.90;;;;;;;14.95;100.00;100182.72;678176;29;1284;-61
2023/07/30 00:18:48;;;;;;;8.40;3.03;;;;;;;14.93;100.00;100192.44;680556;28;4484;-61
2023/07/30 00:19:08;;;;;;;6.10;3.20;;;;;;;14.93;100.00;100189.78;680080;28;2271;-61
2023/07/30 00:19:28;;;;;;;6.47;3.27;;;;;;;14.93;100.00;100179.28;678268;29;1297;-62
2023/07/30 00:19:49;;;;;;;5.80;3.30;;;;;;;14.92;100.00;100188.06;678788;29;917;-61
2023/07/30 00:20:10;;;;;;;5.83;3.20;;;;;;;14.91;100.00;100185.47;677988;29;1958;-61
2023/07/30 00:20:30;;;;;;;6.00;2.90;;;;;;;14.91;100.00;100186.38;679741;29;899;-62
2023/07/30 00:20:50;;;;;;;5.63;2.90;;;;;;;14.92;100.00;100182.81;679830;29;826;-61
2023/07/30 00:21:11;;;;;;;5.40;3.10;;;;;;;14.95;100.00;100182.72;677708;29;2229;-62
2023/07/30 00:21:31;;;;;;;4.73;3.00;;;;;;;14.93;100.00;100181.91;679434;29;1414;-61
2023/07/30 00:21:52;;;;;;;5.13;2.85;;;;;;;14.92;100.00;100188.06;677787;29;4373;-62
2023/07/30 00:22:12;;;;;;;5.80;3.10;;;;;;;14.93;100.00;100184.53;677037;29;1818;-62
2023/07/30 00:22:35;;;;;;;6.38;3.00;;;;;;;14.92;100.00;100192.47;678595;29;981;-62
2023/07/30 00:22:55;;;;;;;5.15;3.10;;;;;;;14.89;100.00;100185.53;677693;29;1741;-61
2023/07/30 00:23:16;;;;;;;5.45;3.35;;;;;;;14.90;100.00;100173.25;678873;29;866;-61
2023/07/30 00:23:36;;;;;;;5.33;3.10;;;;;;;14.87;100.00;100184.72;678273;29;1392;-62
2023/07/30 00:23:56;;;;;;;4.80;3.05;;;;;;;14.87;100.00;100186.47;678027;29;2035;-62
2023/07/30 00:24:17;;;;;;;5.10;3.00;;;;;;;14.86;100.00;100177.75;679292;29;1922;-62
2023/07/30 00:24:37;;;;;;;5.97;3.20;;;;;;;14.87;100.00;100189.13;676914;29;4354;-61
2023/07/30 00:24:58;;;;;;;5.15;3.28;;;;;;;14.88;100.00;100188.22;676872;29;1980;-62
2023/07/30 00:25:18;;;;;;;5.30;3.20;;;;;;;14.87;100.00;100184.72;679242;29;1356;-61
2023/07/30 00:25:38;;;;;;;5.60;3.30;;;;;;;14.86;100.00;100184.78;678061;29;1359;-61
2023/07/30 00:25:59;;;;;;;5.40;3.13;;;;;;;14.87;100.00;100187.38;677738;29;1740;-61
2023/07/30 00:26:20;;;;;;;4.82;2.88;;;;;;;14.87;100.00;100183.84;678654;29;830;-62
2023/07/30 00:26:40;;;;;;;4.53;3.10;;;;;;;14.85;100.00;100186.53;677588;29;806;-62
2023/07/30 00:27:00;;;;;;;5.07;2.90;;;;;;;14.86;100.00;100187.41;677788;29;1917;-61
2023/07/30 00:27:21;;;;;;;5.90;3.07;;;;;;;14.86;100.00;100184.78;678573;29;877;-61
2023/07/30 00:27:41;;;;;;;7.75;3.35;;;;;;;14.86;100.00;100188.25;677669;28;4424;-61
2023/07/30 00:28:03;;;;;;;7.55;3.13;;;;;;;14.83;100.00;100188.38;676347;29;2394;-61
2023/07/30 00:28:24;;;;;;;6.37;3.23;;;;;;;14.81;100.00;100184.91;677406;29;1316;-62
2023/07/30 00:28:44;;;;;;;5.82;3.20;;;;;;;14.79;100.00;100178.84;678986;29;826;-61
2023/07/30 00:29:05;;;;;;;5.00;3.33;;;;;;;14.82;100.00;100186.63;677954;29;2266;-61
2023/07/30 00:29:25;;;;;;;5.25;3.25;;;;;;;14.81;100.00;100185.78;679663;29;925;-62
2023/07/30 00:29:45;;;;;;;5.07;3.40;;;;;;;14.82;100.00;100187.47;678987;29;838;-62
2023/07/30 00:30:07;;;;;;;5.53;3.40;;;;;;;14.82;100.00;100187.47;679955;28;2072;-61
2023/07/30 00:30:27;;;;;;;5.18;3.28;;;;;;;14.82;100.00;100184.00;681175;29;846;-62
2023/07/30 00:30:48;;;;;;;4.90;3.40;;;;;;;14.81;100.00;100190.16;679234;29;4400;-62
2023/07/30 00:31:08;;;;;;;5.60;3.40;;;;;;;14.77;100.00;100189.41;680079;28;1509;-62
2023/07/30 00:31:29;;;;;;;5.63;3.40;;;;;;;14.77;100.00;100184.16;679594;29;1305;-61
2023/07/30 00:31:51;;;;;;;5.32;3.30;;;;;;;14.78;100.00;100182.38;678257;29;1415;-62
2023/07/30 00:32:15;;;;;;;5.50;3.05;;;;;;;14.75;100.00;100183.31;675582;29;1870;-62
2023/07/30 00:32:36;;;;;;;5.57;3.20;;;;;;;14.73;100.00;100190.41;674189;29;1181;-61
2023/07/30 00:32:59;;;;;;;6.45;4.00;;;;;;;14.74;100.00;100188.63;673300;29;1711;-61
2023/07/30 00:33:21;;;;;;;6.47;3.72;;;;;;;14.74;100.00;100189.47;675889;29;1367;-62
2023/07/30 00:33:42;;;;;;;5.47;3.30;;;;;;;14.73;100.00;100190.41;676719;29;4301;-62
2023/07/30 00:34:02;;;;;;;5.10;2.93;;;;;;;14.73;100.00;100184.25;673911;29;1590;-61
2023/07/30 00:34:23;;;;;;;6.97;3.30;;;;;;;14.75;100.00;100187.72;677118;29;944;-62
2023/07/30 00:34:43;;;;;;;7.70;3.47;;;;;;;14.73;100.00;100186.91;679585;29;988;-62
2023/07/30 00:35:06;;;;;;;5.82;3.58;;;;;;;14.72;100.00;100191.31;675154;29;2269;-62
2023/07/30 00:35:27;;;;;;;5.88;3.30;;;;;;;14.72;100.00;100190.47;674388;29;1368;-62
2023/07/30 00:35:51;;;;;;;7.05;3.30;;;;;;;14.72;100.00;100193.09;675209;29;1452;-61
2023/07/30 00:36:12;;;;;;;5.72;3.30;;;;;;;14.71;100.00;100186.09;675655;29;1680;-62
2023/07/30 00:36:32;;;;;;;5.40;3.37;;;;;;;14.71;100.00;100194.00;676799;29;1739;-61
2023/07/30 00:36:53;;;;;;;7.45;3.72;;;;;;;14.70;100.00;100192.25;677109;29;4471;-62
2023/07/30 00:37:14;;;;;;;7.10;3.78;;;;;;;14.71;100.00;100191.34;678348;29;2582;-62
2023/07/30 00:37:34;;;;;;;6.17;3.33;;;;;;;14.69;100.00;100195.78;681194;29;882;-61
2023/07/30 00:37:55;;;;;;;5.80;3.40;;;;;;;14.67;100.00;100195.84;680511;28;1571;-60
2023/07/30 00:38:15;;;;;;;5.67;3.50;;;;;;;14.69;100.00;100193.16;679094;29;1307;-61
2023/07/30 00:38:36;;;;;;;4.93;3.40;;;;;;;14.69;100.00;100190.53;676381;29;890;-62
2023/07/30 00:38:56;;;;;;;5.53;3.67;;;;;;;14.69;100.00;100195.78;673554;29;2343;-61
2023/07/30 00:39:17;;;;;;;6.40;3.50;;;;;;;14.68;100.00;100191.44;673986;29;905;-62
2023/07/30 00:39:37;;;;;;;6.13;3.30;;;;;;;14.68;100.00;100194.09;676533;29;4483;-61
2023/07/30 00:39:58;;;;;;;5.47;3.57;;;;;;;14.68;100.00;100201.97;672308;29;1488;-62
2023/07/30 00:40:21;;;;;;;6.50;3.60;;;;;;;14.66;100.00;100198.50;672041;29;843;-61
2023/07/30 00:40:41;;;;;;;5.55;3.47;;;;;;;14.66;100.00;100195.88;674659;29;945;-63
2023/07/30 00:41:02;;;;;;;6.20;3.53;;;;;;;14.68;100.00;100194.09;675956;29;1169;-62
2023/07/30 00:41:23;;;;;;;6.13;3.50;;;;;;;14.69;100.00;100194.03;675073;29;1319;-62
2023/07/30 00:41:45;;;;;;;5.33;3.47;;;;;;;14.68;100.00;100194.94;677035;29;775;-62
2023/07/30 00:42:06;;;;;;;5.53;3.38;;;;;;;14.68;100.00;100192.31;677566;29;1828;-61
2023/07/30 00:42:26;;;;;;;5.60;3.40;;;;;;;14.69;100.00;100201.03;678023;29;897;-61
2023/07/30 00:42:47;;;;;;;5.22;3.35;;;;;;;14.69;100.00;100195.78;677861;29;4391;-62
2023/07/30 00:43:08;;;;;;;6.15;3.70;;;;;;;14.69;100.00;100195.78;677887;29;1744;-61
2023/07/30 00:43:28;;;;;;;5.67;3.50;;;;;;;14.70;100.00;100192.25;679336;29;1508;-61
2023/07/30 00:43:49;;;;;;;6.63;3.70;;;;;;;14.70;100.00;100195.75;679499;29;1392;-61
2023/07/30 00:44:09;;;;;;;6.60;3.60;;;;;;;14.71;100.00;100199.25;679001;29;1972;-61
2023/07/30 00:44:32;;;;;;;5.88;3.60;;;;;;;14.70;100.00;100193.09;678508;29;838;-61
2023/07/30 00:44:53;;;;;;;5.73;3.43;;;;;;;14.71;100.00;100194.00;679331;29;858;-62
2023/07/30 00:45:13;;;;;;;5.57;3.43;;;;;;;14.71;100.00;100194.00;676840;29;2348;-61
2023/07/30 00:45:35;;;;;;;5.60;3.58;;;;;;;14.69;100.00;100193.16;676938;29;1329;-62
2023/07/30 00:45:55;;;;;;;5.68;3.30;;;;;;;14.70;100.00;100189.63;675176;29;4457;-62
2023/07/30 00:46:16;;;;;;;4.90;3.30;;;;;;;14.71;100.00;100194.00;676309;29;862;-61
2023/07/30 00:46:36;;;;;;;5.17;3.30;;;;;;;14.71;100.00;100194.00;674852;29;933;-61
2023/07/30 00:46:58;;;;;;;5.35;3.30;;;;;;;14.72;100.00;100190.47;675243;29;1944;-61
2023/07/30 00:47:20;;;;;;;5.97;3.40;;;;;;;14.73;100.00;100189.53;675351;29;1264;-62
2023/07/30 00:47:41;;;;;;;7.25;3.33;;;;;;;14.72;100.00;100190.47;677646;29;1565;-61
2023/07/30 00:48:01;;;;;;;6.10;3.47;;;;;;;14.73;100.00;100190.41;677719;29;1738;-62
2023/07/30 00:48:22;;;;;;;5.13;3.30;;;;;;;14.73;100.00;100187.78;678595;29;1044;-61
2023/07/30 00:48:43;;;;;;;5.93;3.20;;;;;;;14.74;100.00;100193.88;678982;28;4348;-61
2023/07/30 00:49:03;;;;;;;5.10;3.05;;;;;;;14.74;100.00;100188.63;674781;29;2336;-60
2023/07/30 00:49:24;;;;;;;6.17;3.20;;;;;;;14.73;100.00;100186.91;674402;29;857;-60
2023/07/30 00:49:44;;;;;;;5.32;3.33;;;;;;;14.74;100.00;100192.09;674761;29;1225;-62
2023/07/30 00:50:07;;;;;;;5.20;3.50;;;;;;;14.75;100.00;100195.63;674105;29;1897;-62
2023/07/30 00:50:27;;;;;;;5.78;3.58;;;;;;;14.75;100.00;100187.72;675223;29;1516;-62
2023/07/30 00:50:48;;;;;;;5.60;3.53;;;;;;;14.75;100.00;100193.84;675020;29;1337;-62
2023/07/30 00:51:13;;;;;;;5.55;3.40;;;;;;;14.75;100.00;100188.56;674834;29;1789;-61
2023/07/30 00:51:34;;;;;;;6.28;3.67;;;;;;;14.76;100.00;100186.78;677427;29;1257;-62
2023/07/30 00:51:56;;;;;;;5.75;3.50;;;;;;;14.77;100.00;100192.03;679005;29;4492;-62
2023/07/30 00:52:19;;;;;;;5.38;3.35;;;;;;;14.77;100.00;100193.78;678681;29;1501;-62
2023/07/30 00:52:40;;;;;;;5.75;3.50;;;;;;;14.75;100.00;100198.25;679224;29;778;-61
2023/07/30 00:53:01;;;;;;;5.70;3.23;;;;;;;14.74;100.00;100189.47;677775;29;2599;-62
2023/07/30 00:53:23;;;;;;;5.97;3.50;;;;;;;14.73;100.00;100192.16;676742;29;825;-62
2023/07/30 00:53:44;;;;;;;5.80;3.47;;;;;;;14.72;100.00;100190.47;675667;29;1144;-62
2023/07/30 00:54:04;;;;;;;4.88;3.10;;;;;;;14.72;100.00;100191.31;673482;29;1723;-62
2023/07/30 00:54:25;;;;;;;5.38;3.22;;;;;;;14.73;100.00;100187.78;674870;29;810;-63
2023/07/30 00:54:48;;;;;;;5.97;3.20;;;;;;;14.74;100.00;100188.63;675742;29;4562;-61
2023/07/30 00:55:09;;;;;;;5.97;3.42;;;;;;;14.73;100.00;100198.31;676980;29;2330;-62
2023/07/30 00:55:29;;;;;;;6.32;3.38;;;;;;;14.77;100.00;100204.31;679997;29;1231;-62
2023/07/30 00:55:50;;;;;;;6.05;3.28;;;;;;;14.79;100.00;100200.75;679895;29;1569;-62
2023/07/30 00:56:13;;;;;;;5.97;3.30;;;;;;;14.80;100.00;100193.69;680617;28;1716;-62
2023/07/30 00:56:34;;;;;;;6.45;3.15;;;;;;;14.80;100.00;100194.56;679191;29;857;-62
2023/07/30 00:56:55;;;;;;;7.28;3.45;;;;;;;14.79;100.00;100194.63;679432;29;913;-62
2023/07/30 00:57:18;;;;;;;6.20;3.20;;;;;;;14.80;100.00;100198.97;679622;29;1287;-62
2023/07/30 00:57:39;;;;;;;6.50;3.35;;;;;;;14.79;100.00;100192.84;678697;29;4721;-61
2023/07/30 00:58:00;;;;;;;6.35;3.40;;;;;;;14.79;100.00;100189.38;677184;29;2479;-62
2023/07/30 00:58:21;;;;;;;5.68;3.42;;;;;;;14.79;100.00;100192.00;680071;29;891;-63
2023/07/30 00:58:44;;;;;;;7.07;3.45;;;;;;;14.78;100.00;100193.75;680094;29;917;-62
2023/07/30 00:59:05;;;;;;;6.20;3.40;;;;;;;14.77;100.00;100191.16;677667;29;2405;-62
2023/07/30 00:59:26;;;;;;;5.22;3.30;;;;;;;14.78;100.00;100199.00;680087;29;953;-62
2023/07/30 00:59:48;;;;;;;6.00;3.03;;;;;;;14.77;100.00;100193.78;679863;29;905;-62
2023/07/30 01:00:09;;;;;;;7.10;3.22;;;;;;;14.78;100.00;100196.38;679451;29;1727;-62
2023/07/30 01:00:31;;;;;;;6.63;3.17;;;;;;;14.79;100.00;100192.84;682381;29;1374;-62
2023/07/30 01:00:53;;;;;;;5.72;3.20;;;;;;;14.80;100.00;100194.56;682177;28;4393;-62
2023/07/30 01:01:13;;;;;;;5.50;3.13;;;;;;;14.82;100.00;100194.53;679864;28;960;-61
2023/07/30 01:01:37;;;;;;;6.03;2.92;;;;;;;14.84;100.00;100197.97;680896;29;862;-62
2023/07/30 01:01:58;;;;;;;5.22;3.42;;;;;;;14.83;100.00;100196.25;679410;29;1488;-62
2023/07/30 01:02:21;;;;;;;5.85;3.15;;;;;;;14.83;100.00;100196.25;678522;29;1042;-62
2023/07/30 01:02:42;;;;;;;7.70;3.47;;;;;;;14.83;100.00;100196.25;678103;29;858;-62
2023/07/30 01:03:04;;;;;;;6.32;3.30;;;;;;;14.84;100.00;100203.22;678230;28;1795;-62
2023/07/30 01:03:25;;;;;;;7.17;3.40;;;;;;;14.84;100.00;100195.31;677635;29;881;-62
2023/07/30 01:03:46;;;;;;;6.63;3.50;;;;;;;14.84;100.00;100194.47;679402;29;4583;-62
2023/07/30 01:04:06;;;;;;;5.90;3.50;;;;;;;14.83;100.00;100198.88;678681;29;881;-62
2023/07/30 01:04:27;;;;;;;6.60;3.37;;;;;;;14.82;100.00;100194.53;677877;29;1918;-63
2023/07/30 01:04:48;;;;;;;4.80;3.03;;;;;;;14.82;100.00;100192.75;678627;29;1280;-62
2023/07/30 01:05:08;;;;;;;5.13;3.30;;;;;;;14.82;100.00;100203.28;677989;29;1513;-62
2023/07/30 01:05:32;;;;;;;5.57;3.33;;;;;;;14.79;100.00;100198.09;678063;29;1580;-62
2023/07/30 01:05:53;;;;;;;6.28;3.58;;;;;;;14.78;100.00;100198.16;679201;29;983;-62
2023/07/30 01:06:14;;;;;;;5.05;3.40;;;;;;;14.79;100.00;100197.25;677023;29;1761;-62
2023/07/30 01:06:34;;;;;;;5.00;3.17;;;;;;;14.78;100.00;100201.63;678775;29;909;-62
2023/07/30 01:06:55;;;;;;;5.32;2.90;;;;;;;14.79;100.00;100200.75;675634;29;4285;-62
2023/07/30 01:07:15;;;;;;;5.97;3.03;;;;;;;14.79;100.00;100198.09;676014;29;1458;-62
2023/07/30 01:07:36;;;;;;;5.28;3.17;;;;;;;14.82;100.00;100202.41;675537;29;1334;-62
2023/07/30 01:07:56;;;;;;;4.97;3.20;;;;;;;14.81;100.00;100200.69;675153;29;1684;-61
2023/07/30 01:08:17;;;;;;;5.18;3.20;;;;;;;14.79;100.00;100199.88;675298;29;854;-62
2023/07/30 01:08:38;;;;;;;7.10;3.43;;;;;;;14.82;100.00;100207.69;675369;29;1412;-62
2023/07/30 01:08:59;;;;;;;6.45;3.33;;;;;;;14.82;100.00;100205.91;677223;29;1602;-62
2023/07/30 01:09:19;;;;;;;6.50;3.50;;;;;;;14.82;100.00;100199.78;675469;29;1350;-60
2023/07/30 01:09:40;;;;;;;6.93;3.30;;;;;;;14.81;100.00;100203.31;674394;29;4328;-61
2023/07/30 01:10:02;;;;;;;7.57;3.23;;;;;;;14.80;100.00;100204.22;675198;29;2414;-62
2023/07/30 01:10:23;;;;;;;5.88;3.20;;;;;;;14.82;100.00;100202.41;674802;29;1784;-62
2023/07/30 01:10:44;;;;;;;5.80;3.10;;;;;;;14.81;100.00;100205.94;674429;29;1507;-62
2023/07/30 01:11:08;;;;;;;6.03;3.30;;;;;;;14.80;100.00;100210.38;674106;29;1922;-62
2023/07/30 01:11:31;;;;;;;5.97;3.53;;;;;;;14.81;100.00;100205.94;675961;29;922;-62
2023/07/30 01:11:54;;;;;;;5.43;3.40;;;;;;;14.80;100.00;100204.22;674228;29;1355;-62
2023/07/30 01:12:15;;;;;;;5.30;3.05;;;;;;;14.80;100.00;100209.47;671749;29;1601;-62
2023/07/30 01:12:37;;;;;;;6.47;3.22;;;;;;;14.81;100.00;100208.59;675009;29;4529;-62
2023/07/30 01:13:01;;;;;;;5.85;3.45;;;;;;;14.81;100.00;100205.94;674663;29;1726;-62
2023/07/30 01:13:22;;;;;;;4.93;3.30;;;;;;;14.81;100.00;100213.84;677483;29;819;-62
2023/07/30 01:13:42;;;;;;;5.70;3.50;;;;;;;14.82;100.00;100212.94;679866;29;1079;-61
2023/07/30 01:14:05;;;;;;;5.67;3.23;;;;;;;14.82;100.00;100207.69;675661;29;1864;-62
2023/07/30 01:14:26;;;;;;;6.15;3.20;;;;;;;14.81;100.00;100205.94;677143;29;874;-62
2023/07/30 01:14:47;;;;;;;7.30;3.10;;;;;;;14.81;100.00;100205.94;678284;29;1253;-62
2023/07/30 01:15:09;;;;;;;6.22;3.00;;;;;;;14.81;100.00;100204.19;678424;29;1435;-62
2023/07/30 01:15:31;;;;;;;5.80;2.92;;;;;;;14.83;100.00;100209.41;678536;29;885;-62
2023/07/30 01:15:51;;;;;;;5.50;3.47;;;;;;;14.86;100.00;100205.84;677490;29;4401;-62
2023/07/30 01:16:12;;;;;;;6.10;3.13;;;;;;;14.87;100.00;100210.16;678597;29;1737;-61
2023/07/30 01:16:32;;;;;;;6.00;3.40;;;;;;;14.88;100.00;100209.28;680386;29;1185;-62
2023/07/30 01:16:53;;;;;;;8.93;3.70;;;;;;;14.88;100.00;100204.84;679457;29;862;-62
2023/07/30 01:17:14;;;;;;;8.63;3.60;;;;;;;14.88;100.00;100207.50;676852;29;1919;-62
2023/07/30 01:17:34;;;;;;;6.45;3.40;;;;;;;14.89;100.00;100208.38;676898;29;866;-62
2023/07/30 01:17:55;;;;;;;5.23;3.20;;;;;;;14.88;100.00;100212.75;676555;29;1190;-62
2023/07/30 01:18:15;;;;;;;5.63;3.22;;;;;;;14.87;100.00;100205.78;674195;29;1914;-62
2023/07/30 01:18:36;;;;;;;5.17;3.33;;;;;;;14.87;100.00;100210.16;674390;29;1241;-62
2023/07/30 01:18:58;;;;;;;5.50;3.15;;;;;;;14.87;100.00;100205.78;676986;29;4653;-62
2023/07/30 01:19:19;;;;;;;5.13;3.22;;;;;;;14.87;100.00;100211.06;679275;29;2001;-61
2023/07/30 01:19:39;;;;;;;5.30;3.40;;;;;;;14.86;100.00;100200.56;679483;29;1426;-62
2023/07/30 01:19:59;;;;;;;4.80;3.00;;;;;;;14.90;100.00;100204.84;673841;29;2274;-62
2023/07/30 01:20:21;;;;;;;5.53;3.00;;;;;;;14.94;100.00;100201.22;673715;29;1243;-62
2023/07/30 01:20:41;;;;;;;5.20;3.25;;;;;;;15.00;100.00;100200.16;674288;29;1123;-62
2023/07/30 01:21:01;;;;;;;5.38;3.20;;;;;;;15.06;100.00;100192.06;674574;29;1588;-63
2023/07/30 01:21:22;;;;;;;5.23;3.17;;;;;;;15.09;100.00;100194.59;676496;29;1218;-62
2023/07/30 01:21:42;;;;;;;5.70;3.28;;;;;;;15.10;100.00;100191.06;677441;29;4525;-62
2023/07/30 01:22:03;;;;;;;6.13;3.20;;;;;;;15.12;100.00;100189.25;680020;29;1704;-63
2023/07/30 01:22:23;;;;;;;5.55;3.30;;;;;;;15.09;100.00;100187.56;679022;29;1323;-62
2023/07/30 01:22:44;;;;;;;5.93;3.20;;;;;;;15.09;100.00;100191.94;677323;29;1327;-61
2023/07/30 01:23:04;;;;;;;5.63;3.33;;;;;;;15.07;100.00;100189.38;676969;29;1487;-61
2023/07/30 01:23:25;;;;;;;5.43;3.40;;;;;;;15.05;100.00;100188.56;677499;29;838;-63
2023/07/30 01:23:46;;;;;;;5.90;3.50;;;;;;;15.04;100.00;100193.88;676216;29;1428;-62
2023/07/30 01:24:09;;;;;;;6.03;3.70;;;;;;;15.02;100.00;100190.44;673902;29;1490;-62
2023/07/30 01:24:31;;;;;;;6.20;3.17;;;;;;;15.01;100.00;100193.97;673871;29;1484;-62
2023/07/30 01:24:52;;;;;;;5.32;3.15;;;;;;;15.00;100.00;100193.09;672634;29;4592;-62
2023/07/30 01:25:13;;;;;;;5.50;3.15;;;;;;;15.00;100.00;100193.09;674502;29;1754;-62
2023/07/30 01:25:36;;;;;;;7.15;3.35;;;;;;;15.01;100.00;100204.50;677325;29;1090;-62
2023/07/30 01:26:03;;;;;;;5.50;3.17;;;;;;;14.97;100.00;100201.97;677650;29;1281;-62
2023/07/30 01:26:30;;;;;;;5.82;3.30;;;;;;;14.96;100.00;100207.28;674012;29;1333;-60
2023/07/30 01:27:00;;;;;;;6.30;3.13;;;;;;;14.94;100.00;100209.09;675412;29;1216;-62
2023/07/30 01:27:27;;;;;;;6.50;3.20;;;;;;;14.95;100.00;100205.53;675566;29;1335;-62
2023/07/30 01:27:51;;;;;;;4.90;3.00;;;;;;;14.95;100.00;100214.31;675002;29;4375;-62
2023/07/30 01:28:18;;;;;;;5.53;3.15;;;;;;;14.93;100.00;100205.59;673295;29;1732;-62
2023/07/30 01:28:45;;;;;;;5.20;3.30;;;;;;;14.96;100.00;100215.16;676427;29;1205;-62
2023/07/30 01:29:22;;;;;;;5.50;2.97;;;;;;;14.95;100.00;100209.06;674601;29;1448;-62
2023/07/30 01:29:48;;;;;;;7.53;3.22;;;;;;;14.96;100.00;100212.53;675666;29;843;-62
2023/07/30 01:30:25;;;;;;;6.15;3.00;;;;;;;14.98;100.00;100218.59;676869;29;1576;-61
2023/07/30 01:30:46;;;;;;;6.38;3.00;;;;;;;14.96;100.00;100216.00;678791;29;4684;-62
2023/07/30 01:31:08;;;;;;;5.93;3.17;;;;;;;14.96;100.00;100215.16;677453;29;1769;-61
2023/07/30 01:31:31;;;;;;;5.97;3.20;;;;;;;14.95;100.00;100219.56;675724;29;838;-62
2023/07/30 01:31:57;;;;;;;6.25;3.15;;;;;;;14.97;100.00;100216.91;671830;29;1464;-62
2023/07/30 01:32:20;;;;;;;5.35;2.95;;;;;;;14.96;100.00;100218.66;673220;29;913;-62
2023/07/30 01:32:41;;;;;;;6.05;3.22;;;;;;;14.94;100.00;100209.09;675306;29;1320;-62
2023/07/30 01:33:01;;;;;;;5.53;2.97;;;;;;;14.95;100.00;100216.06;673436;29;1511;-62
2023/07/30 01:33:22;;;;;;;5.13;2.80;;;;;;;14.96;100.00;100215.16;676094;29;787;-60
2023/07/30 01:33:48;;;;;;;6.07;3.00;;;;;;;14.96;100.00;100218.66;677933;29;4560;-62
2023/07/30 01:34:11;;;;;;;6.10;3.30;;;;;;;15.03;100.00;100215.84;678443;29;1731;-62
2023/07/30 01:34:34;;;;;;;5.88;2.95;;;;;;;15.03;100.00;100221.13;677203;29;981;-63
2023/07/30 01:34:57;;;;;;;6.03;3.10;;;;;;;15.02;100.00;100214.13;675983;29;1337;-63
2023/07/30 01:35:21;;;;;;;5.28;3.10;;;;;;;15.03;100.00;100214.06;673651;29;1430;-62
2023/07/30 01:35:43;;;;;;;4.72;3.10;;;;;;;15.04;100.00;100220.22;667833;29;2095;-61
2023/07/30 01:36:05;;;;;;;4.72;3.13;;;;;;;15.03;100.00;100221.13;666971;29;1813;-60
2023/07/30 01:36:27;;;;;;;4.75;3.05;;;;;;;15.03;100.00;100210.59;670759;29;1242;-61
2023/07/30 01:36:49;;;;;;;5.05;2.85;;;;;;;15.04;100.00;100212.31;670697;29;4443;-62
2023/07/30 01:37:12;;;;;;;5.75;2.85;;;;;;;15.03;100.00;100215.84;669474;29;1985;-62
2023/07/30 01:37:33;;;;;;;5.63;3.22;;;;;;;15.01;100.00;100221.16;670465;29;930;-62
2023/07/30 01:37:55;;;;;;;4.85;2.92;;;;;;;15.02;100.00;100227.28;673334;29;838;-61
2023/07/30 01:38:16;;;;;;;5.45;2.92;;;;;;;15.00;100.00;100223.84;668210;29;2522;-62
2023/07/30 01:38:38;;;;;;;6.57;3.20;;;;;;;15.00;100.00;100219.44;669456;29;5270;-62
2023/07/30 01:39:00;;;;;;;5.65;3.00;;;;;;;15.02;100.00;100222.00;668903;29;1756;-62
2023/07/30 01:39:20;;;;;;;6.13;3.20;;;;;;;15.03;100.00;100221.97;672725;29;854;-60
2023/07/30 01:39:42;;;;;;;6.38;3.10;;;;;;;15.04;100.00;100222.84;673329;29;4455;-62
2023/07/30 01:40:03;;;;;;;6.15;3.00;;;;;;;15.03;100.00;100227.22;674162;29;2329;-62
2023/07/30 01:40:24;;;;;;;4.95;2.95;;;;;;;15.03;100.00;100221.13;679895;29;1205;-62
2023/07/30 01:40:44;;;;;;;5.40;2.83;;;;;;;15.02;100.00;100229.91;679985;29;1283;-62
2023/07/30 01:41:05;;;;;;;6.13;3.13;;;;;;;15.02;100.00;100227.28;678389;29;1017;-63